Time;durP1;ratioP1;P1;durP2;ratioP2;P2;SDS_P1;SDS_P2;PMS_P1;PMS_P2;Temp;Humidity;BMP_temperature;BMP_pressure;BME280_temperature;BME280_humidity;BME280_pressure;Samples;Min_cycle;Max_cycle;Signal;HPM_P1;HPM_P2
2024/01/19 00:00:00;;;;;;;3.17;0.40;;;0.10;99.90;;;;;;5082291;28;20095;-65
2024/01/19 00:02:25;;;;;;;2.25;0.20;;;0.20;99.90;;;;;;5116428;27;20076;-65
2024/01/19 00:04:51;;;;;;;2.53;0.32;;;0.10;99.90;;;;;;5084291;28;20123;-65
2024/01/19 00:07:17;;;;;;;3.67;0.70;;;0.10;99.90;;;;;;5079220;28;20078;-65
2024/01/19 00:09:42;;;;;;;8.80;0.73;;;0.10;99.90;;;;;;5079742;28;20032;-65
2024/01/19 00:12:08;;;;;;;2.35;0.35;;;0.00;99.90;;;;;;5082404;28;20047;-65
2024/01/19 00:14:34;;;;;;;4.57;0.40;;;0.10;99.90;;;;;;5115070;27;20044;-65
2024/01/19 00:16:59;;;;;;;5.00;0.80;;;0.10;99.90;;;;;;5078639;28;20094;-65
2024/01/19 00:19:25;;;;;;;7.45;0.60;;;0.10;99.90;;;;;;5079038;28;20085;-65
2024/01/19 00:21:51;;;;;;;2.60;0.50;;;0.10;99.90;;;;;;5082329;28;20139;-65
2024/01/19 00:24:16;;;;;;;1.63;0.30;;;0.10;99.90;;;;;;5081673;28;20046;-65
2024/01/19 00:26:47;;;;;;;4.82;0.80;;;0.10;99.90;;;;;;5078432;28;20039;-65
2024/01/19 00:29:12;;;;;;;4.72;0.50;;;0.10;99.90;;;;;;5081845;28;20044;-65
2024/01/19 00:31:38;;;;;;;3.22;0.60;;;0.10;99.90;;;;;;5081130;28;20448;-65
2024/01/19 00:34:04;;;;;;;6.57;0.50;;;0.10;99.90;;;;;;5081294;28;20044;-65
2024/01/19 00:36:29;;;;;;;6.72;1.27;;;0.00;99.90;;;;;;5069390;28;20047;-65
2024/01/19 00:38:55;;;;;;;5.90;0.60;;;0.00;99.90;;;;;;5079671;28;20037;-65
2024/01/19 00:41:21;;;;;;;3.35;0.60;;;0.00;99.90;;;;;;5080754;28;20040;-65
2024/01/19 00:43:46;;;;;;;4.55;0.63;;;0.00;99.90;;;;;;5082062;28;20074;-65
2024/01/19 00:46:12;;;;;;;4.38;0.57;;;0.00;99.90;;;;;;5086075;28;20115;-65
2024/01/19 00:48:38;;;;;;;5.45;0.70;;;-0.10;99.90;;;;;;5081942;28;20039;-64
2024/01/19 00:51:04;;;;;;;3.25;0.65;;;-0.10;99.90;;;;;;5084657;28;20127;-65
2024/01/19 00:53:29;;;;;;;3.40;0.70;;;-0.10;99.90;;;;;;5083664;28;20059;-65
2024/01/19 00:55:55;;;;;;;4.53;0.73;;;-0.10;99.90;;;;;;5086490;28;20043;-65
2024/01/19 00:58:21;;;;;;;6.90;1.10;;;-0.10;99.90;;;;;;5083045;28;20621;-65
2024/01/19 01:00:46;;;;;;;1.90;0.52;;;-0.10;99.90;;;;;;5087406;28;20538;-65
2024/01/19 01:03:24;;;;;;;6.25;0.73;;;-0.10;99.90;;;;;;5085188;28;20138;-65
2024/01/19 01:05:56;;;;;;;3.47;0.63;;;-0.10;99.90;;;;;;5084271;28;20111;-65
2024/01/19 01:08:22;;;;;;;4.10;0.55;;;-0.10;99.90;;;;;;5082786;28;20261;-65
2024/01/19 01:10:48;;;;;;;8.20;1.45;;;0.00;99.90;;;;;;5082176;28;20051;-65
2024/01/19 01:13:14;;;;;;;6.70;0.88;;;0.00;99.90;;;;;;5083599;28;20036;-65
2024/01/19 01:15:41;;;;;;;10.07;0.73;;;0.00;99.90;;;;;;5116198;27;20125;-65
2024/01/19 01:18:06;;;;;;;4.00;1.55;;;0.00;99.90;;;;;;5085213;28;20458;-65
2024/01/19 01:20:32;;;;;;;8.60;0.93;;;0.10;99.90;;;;;;5091951;28;20060;-65
2024/01/19 01:22:58;;;;;;;5.65;0.60;;;0.10;99.90;;;;;;5086945;28;20040;-65
2024/01/19 01:25:23;;;;;;;3.78;0.47;;;0.10;99.90;;;;;;5089445;28;20044;-65
2024/01/19 01:27:49;;;;;;;3.97;0.60;;;0.10;99.90;;;;;;5087565;28;20476;-65
2024/01/19 01:30:14;;;;;;;4.28;0.57;;;0.10;99.90;;;;;;5091410;28;20036;-65
2024/01/19 01:32:40;;;;;;;3.42;0.52;;;0.20;99.90;;;;;;5087941;28;20046;-65
2024/01/19 01:35:06;;;;;;;4.78;0.82;;;0.20;99.90;;;;;;5088204;28;20123;-65
2024/01/19 01:37:32;;;;;;;8.43;0.70;;;0.20;99.90;;;;;;5087970;28;20093;-65
2024/01/19 01:39:57;;;;;;;3.92;0.40;;;0.20;99.90;;;;;;5084098;28;20425;-65
2024/01/19 01:42:23;;;;;;;2.67;0.40;;;0.20;99.90;;;;;;5084551;28;20039;-65
2024/01/19 01:44:48;;;;;;;5.35;0.70;;;0.20;99.90;;;;;;5088340;28;20440;-65
2024/01/19 01:47:15;;;;;;;1.50;0.32;;;0.30;99.90;;;;;;5087661;28;20037;-65
2024/01/19 01:49:41;;;;;;;4.18;0.40;;;0.40;99.90;;;;;;5089336;28;20071;-65
2024/01/19 01:52:08;;;;;;;3.90;0.40;;;0.40;99.90;;;;;;5087648;28;20455;-65
2024/01/19 01:54:34;;;;;;;5.07;0.40;;;0.50;99.90;;;;;;5091615;28;20449;-65
2024/01/19 01:57:01;;;;;;;4.05;0.43;;;0.50;99.90;;;;;;5089464;28;20048;-66
2024/01/19 01:59:27;;;;;;;4.25;0.45;;;0.60;99.90;;;;;;5087449;28;20040;-65
2024/01/19 02:01:53;;;;;;;3.10;0.60;;;0.50;99.90;;;;;;5090259;28;20360;-65
2024/01/19 02:04:19;;;;;;;5.45;0.50;;;0.50;99.90;;;;;;5086088;28;20097;-65
2024/01/19 02:06:45;;;;;;;7.03;0.55;;;0.50;99.90;;;;;;5090598;28;20114;-65
2024/01/19 02:09:11;;;;;;;4.35;0.50;;;0.40;99.90;;;;;;5085079;28;20131;-65
2024/01/19 02:11:37;;;;;;;2.72;0.60;;;0.40;99.90;;;;;;5086901;28;20486;-65
2024/01/19 02:14:06;;;;;;;4.22;0.50;;;0.40;99.90;;;;;;5085248;28;20096;-65
2024/01/19 02:16:32;;;;;;;5.18;0.45;;;0.30;99.90;;;;;;5086903;28;20367;-65
2024/01/19 02:18:58;;;;;;;4.57;0.70;;;0.30;99.90;;;;;;5082500;28;20072;-65
2024/01/19 02:21:24;;;;;;;4.90;0.50;;;0.20;99.90;;;;;;5093290;28;20150;-65
2024/01/19 02:24:13;;;;;;;7.45;1.23;;;0.20;99.90;;;;;;5089773;28;20047;-65
2024/01/19 02:26:39;;;;;;;6.53;0.60;;;0.10;99.90;;;;;;5079079;28;20047;-65
2024/01/19 02:29:05;;;;;;;6.10;0.70;;;0.10;99.90;;;;;;5087273;28;20114;-65
2024/01/19 02:31:31;;;;;;;4.05;0.80;;;0.00;99.90;;;;;;5091790;28;20044;-65
2024/01/19 02:33:57;;;;;;;5.82;0.68;;;-0.10;99.90;;;;;;5120262;27;20035;-65
2024/01/19 02:36:22;;;;;;;4.40;0.40;;;-0.20;99.90;;;;;;5090701;28;20045;-65
2024/01/19 02:38:48;;;;;;;7.05;0.68;;;-0.20;99.90;;;;;;5086991;28;20032;-65
2024/01/19 02:41:14;;;;;;;6.63;0.50;;;-0.20;99.90;;;;;;5115987;27;20445;-65
2024/01/19 02:43:39;;;;;;;3.40;0.47;;;-0.20;99.90;;;;;;5086272;28;20126;-65
2024/01/19 02:46:05;;;;;;;5.53;0.40;;;-0.20;99.90;;;;;;5115214;27;20043;-65
2024/01/19 02:48:30;;;;;;;2.42;0.40;;;-0.20;99.90;;;;;;5085349;28;20036;-65
2024/01/19 02:50:56;;;;;;;8.07;0.85;;;-0.20;99.90;;;;;;5084901;28;20124;-65
2024/01/19 02:53:22;;;;;;;4.95;0.20;;;-0.10;99.90;;;;;;5092709;28;20162;-65
2024/01/19 02:55:47;;;;;;;6.10;0.40;;;-0.10;99.90;;;;;;5090132;28;20084;-65
2024/01/19 02:58:13;;;;;;;5.32;0.40;;;-0.20;99.90;;;;;;5081970;28;20550;-66
2024/01/19 03:00:39;;;;;;;6.85;0.35;;;-0.10;99.90;;;;;;5086323;28;20040;-65
2024/01/19 03:03:05;;;;;;;2.42;0.20;;;-0.10;99.90;;;;;;5114404;27;20119;-65
2024/01/19 03:05:32;;;;;;;2.35;0.20;;;-0.10;99.90;;;;;;5087264;28;20418;-66
2024/01/19 03:07:57;;;;;;;4.95;0.40;;;0.00;99.90;;;;;;5088570;28;20148;-65
2024/01/19 03:10:23;;;;;;;5.88;0.40;;;0.10;99.90;;;;;;5082262;28;20112;-65
2024/01/19 03:12:49;;;;;;;1.52;0.25;;;0.10;99.90;;;;;;5118907;27;20044;-65
2024/01/19 03:15:15;;;;;;;3.50;0.35;;;0.20;99.90;;;;;;5086176;28;20512;-65
2024/01/19 03:17:40;;;;;;;3.25;0.35;;;0.40;99.90;;;;;;5085557;28;20036;-66
2024/01/19 03:20:06;;;;;;;2.83;0.20;;;0.20;99.90;;;;;;5086067;28;20094;-65
2024/01/19 03:22:32;;;;;;;3.33;1.33;;;0.30;99.90;;;;;;5081927;28;20051;-65
2024/01/19 03:24:57;;;;;;;6.68;0.77;;;0.20;99.90;;;;;;5085013;28;20533;-65
2024/01/19 03:27:23;;;;;;;3.10;0.30;;;0.30;99.90;;;;;;5083635;28;20385;-65
2024/01/19 03:29:49;;;;;;;2.53;0.20;;;0.20;99.90;;;;;;5087651;28;20181;-65
2024/01/19 03:32:14;;;;;;;3.35;0.25;;;0.20;99.90;;;;;;5086529;28;20142;-65
2024/01/19 03:34:40;;;;;;;3.13;0.28;;;0.10;99.90;;;;;;5084820;28;20031;-66
2024/01/19 03:37:06;;;;;;;2.05;0.30;;;0.10;99.90;;;;;;5068599;28;20135;-65
2024/01/19 03:39:34;;;;;;;1.90;0.20;;;0.10;99.90;;;;;;5084046;28;20035;-65
2024/01/19 03:42:00;;;;;;;2.70;0.32;;;0.10;99.90;;;;;;5082828;28;20040;-66
2024/01/19 03:44:26;;;;;;;3.00;0.20;;;0.10;99.90;;;;;;5087374;28;20047;-65
2024/01/19 03:46:53;;;;;;;4.25;0.40;;;0.20;99.90;;;;;;5082073;28;20658;-66
2024/01/19 03:49:19;;;;;;;6.20;0.30;;;0.20;99.90;;;;;;5114518;27;20040;-65
2024/01/19 03:51:56;;;;;;;0.90;0.20;;;0.20;99.90;;;;;;5084304;28;20036;-66
2024/01/19 03:54:22;;;;;;;3.97;0.40;;;0.20;99.90;;;;;;5117964;27;20043;-65
2024/01/19 03:56:47;;;;;;;5.95;0.28;;;0.20;99.90;;;;;;5088841;28;20046;-65
2024/01/19 03:59:13;;;;;;;3.22;0.20;;;0.20;99.90;;;;;;5085673;28;20047;-66
2024/01/19 04:01:38;;;;;;;3.08;0.50;;;0.20;99.90;;;;;;5084140;28;20426;-66
2024/01/19 04:04:04;;;;;;;2.92;0.30;;;0.20;99.90;;;;;;5084239;28;20028;-65
2024/01/19 04:06:30;;;;;;;1.67;0.25;;;0.10;99.90;;;;;;5114503;27;20102;-65
2024/01/19 04:08:55;;;;;;;2.22;0.30;;;0.10;99.90;;;;;;5081620;28;20044;-66
2024/01/19 04:11:21;;;;;;;2.35;0.38;;;0.00;99.90;;;;;;5083221;28;20048;-65
2024/01/19 04:13:46;;;;;;;3.33;0.60;;;-0.10;99.90;;;;;;5085985;28;20040;-65
2024/01/19 04:16:12;;;;;;;3.90;0.30;;;-0.10;99.90;;;;;;5083765;28;20067;-65
2024/01/19 04:18:37;;;;;;;5.00;0.50;;;-0.20;99.90;;;;;;5084065;28;20040;-65
2024/01/19 04:21:03;;;;;;;3.72;0.60;;;-0.30;99.90;;;;;;5083522;28;20090;-65
2024/01/19 04:23:29;;;;;;;2.28;0.30;;;-0.40;99.90;;;;;;5086572;28;20036;-65
2024/01/19 04:25:54;;;;;;;3.50;0.50;;;-0.40;99.90;;;;;;5086865;28;20367;-65
2024/01/19 04:28:20;;;;;;;9.05;0.60;;;-0.40;99.90;;;;;;5088770;28;20070;-65
2024/01/19 04:30:45;;;;;;;3.25;0.55;;;-0.50;99.90;;;;;;5083976;28;20505;-66
2024/01/19 04:33:11;;;;;;;7.05;0.40;;;-0.50;99.90;;;;;;5087296;28;20044;-65
2024/01/19 04:35:36;;;;;;;4.95;0.28;;;-0.60;99.90;;;;;;5085731;28;20039;-65
2024/01/19 04:38:02;;;;;;;4.95;0.52;;;-0.70;99.90;;;;;;5084514;28;20132;-66
2024/01/19 04:40:28;;;;;;;2.30;0.32;;;-0.70;99.90;;;;;;5084462;28;20066;-65
2024/01/19 04:42:53;;;;;;;2.20;0.35;;;-0.70;99.90;;;;;;5082404;28;20043;-66
2024/01/19 04:45:19;;;;;;;1.75;0.25;;;-0.70;99.90;;;;;;5086145;28;20036;-65
2024/01/19 04:47:45;;;;;;;3.53;0.70;;;-0.70;99.90;;;;;;5084776;28;20036;-65
2024/01/19 04:50:10;;;;;;;4.35;0.20;;;-0.70;99.90;;;;;;5084948;28;20115;-66
2024/01/19 04:52:36;;;;;;;3.92;0.30;;;-0.60;99.90;;;;;;5081155;28;20032;-65
2024/01/19 04:55:02;;;;;;;2.83;0.35;;;-0.70;99.90;;;;;;5090495;28;20070;-65
2024/01/19 04:57:27;;;;;;;2.67;0.50;;;-0.80;99.90;;;;;;5091360;28;20040;-65
2024/01/19 04:59:53;;;;;;;3.38;0.30;;;-0.70;99.90;;;;;;5087462;28;20702;-65
2024/01/19 05:02:19;;;;;;;6.00;0.20;;;-0.80;99.90;;;;;;5074412;28;20048;-66
2024/01/19 05:04:44;;;;;;;3.65;0.35;;;-0.80;99.90;;;;;;5085284;28;20432;-66
2024/01/19 05:07:10;;;;;;;3.65;0.40;;;-0.80;99.90;;;;;;5090403;28;20040;-65
2024/01/19 05:09:35;;;;;;;4.72;1.02;;;-0.80;99.90;;;;;;5069754;28;20044;-65
2024/01/19 05:12:01;;;;;;;2.50;0.38;;;-0.80;99.90;;;;;;5085664;28;20037;-65
2024/01/19 05:14:27;;;;;;;3.65;0.50;;;-0.90;99.90;;;;;;5089120;28;20051;-65
2024/01/19 05:16:52;;;;;;;3.80;0.40;;;-0.80;99.90;;;;;;5121368;27;20043;-66
2024/01/19 05:19:18;;;;;;;2.30;0.25;;;-0.80;99.90;;;;;;5084470;28;20075;-66
2024/01/19 05:21:43;;;;;;;6.28;0.40;;;-0.90;99.90;;;;;;5117172;27;20076;-65
2024/01/19 05:24:09;;;;;;;5.25;0.73;;;-0.90;99.90;;;;;;5086883;28;20035;-65
2024/01/19 05:26:34;;;;;;;3.13;0.30;;;-0.90;99.90;;;;;;5086365;28;20482;-65
2024/01/19 05:29:00;;;;;;;5.75;1.02;;;-0.90;99.90;;;;;;5089424;28;20055;-65
2024/01/19 05:31:26;;;;;;;7.35;0.85;;;-0.90;99.90;;;;;;5080194;28;20078;-66
2024/01/19 05:33:51;;;;;;;3.70;0.45;;;-1.00;99.90;;;;;;5080944;28;20501;-66
2024/01/19 05:36:17;;;;;;;3.45;0.32;;;-0.90;99.90;;;;;;5086638;28;20029;-66
2024/01/19 05:38:43;;;;;;;8.82;0.30;;;-1.00;99.90;;;;;;5088318;28;20036;-66
2024/01/19 05:41:09;;;;;;;4.93;0.60;;;-1.00;99.90;;;;;;5083387;28;20059;-66
2024/01/19 05:43:34;;;;;;;4.70;0.38;;;-1.00;99.90;;;;;;5097392;27;20044;-66
2024/01/19 05:46:00;;;;;;;4.78;0.60;;;-1.00;99.90;;;;;;5087616;28;20045;-66
2024/01/19 05:48:25;;;;;;;4.53;0.90;;;-1.00;99.90;;;;;;5087969;28;20485;-67
2024/01/19 05:50:51;;;;;;;3.80;0.20;;;-1.00;99.90;;;;;;5085067;28;20123;-66
2024/01/19 05:53:16;;;;;;;9.32;0.70;;;-1.00;99.90;;;;;;5080445;28;20044;-66
2024/01/19 05:55:42;;;;;;;6.65;0.93;;;-1.00;99.90;;;;;;5078512;28;20028;-66
2024/01/19 05:58:08;;;;;;;5.07;0.63;;;-1.10;99.90;;;;;;5079449;28;20522;-66
2024/01/19 06:00:34;;;;;;;5.78;0.70;;;-1.10;99.90;;;;;;5081588;28;20473;-66
2024/01/19 06:02:59;;;;;;;9.30;0.98;;;-1.10;99.90;;;;;;5085057;28;20048;-66
2024/01/19 06:05:25;;;;;;;4.55;1.13;;;-1.10;99.90;;;;;;5086407;28;20055;-67
2024/01/19 06:07:50;;;;;;;5.05;0.70;;;-1.10;99.90;;;;;;5086305;28;20432;-66
2024/01/19 06:10:16;;;;;;;3.85;0.80;;;-1.20;99.90;;;;;;5087445;28;20036;-66
2024/01/19 06:12:42;;;;;;;4.55;0.70;;;-1.10;99.90;;;;;;5088481;28;20032;-66
2024/01/19 06:15:09;;;;;;;8.73;2.60;;;-1.10;99.90;;;;;;5087476;28;20375;-67
2024/01/19 06:17:34;;;;;;;11.68;7.88;;;-1.10;99.90;;;;;;5087004;27;20071;-66
2024/01/19 06:20:00;;;;;;;8.57;5.40;;;-1.10;99.90;;;;;;5090619;28;20765;-66
2024/01/19 06:22:26;;;;;;;10.80;4.55;;;-1.10;99.90;;;;;;5086089;28;20141;-66
2024/01/19 06:24:51;;;;;;;6.75;3.70;;;-1.00;99.90;;;;;;5087726;28;20034;-66
2024/01/19 06:27:20;;;;;;;9.23;2.28;;;-1.00;99.90;;;;;;5088852;28;20047;-66
2024/01/19 06:29:46;;;;;;;4.72;0.82;;;-1.00;99.90;;;;;;5087198;28;20036;-66
2024/01/19 06:32:13;;;;;;;8.02;0.65;;;-0.90;99.90;;;;;;5087782;28;20509;-66
2024/01/19 06:34:40;;;;;;;5.90;0.52;;;-0.90;99.90;;;;;;5083045;28;20040;-66
2024/01/19 06:37:05;;;;;;;7.45;0.60;;;-0.80;99.90;;;;;;5115793;27;20048;-66
2024/01/19 06:39:31;;;;;;;8.75;0.47;;;-0.70;99.90;;;;;;5086685;28;20043;-66
2024/01/19 06:41:57;;;;;;;6.32;0.60;;;-0.60;99.90;;;;;;5089053;28;20044;-66
2024/01/19 06:44:22;;;;;;;6.82;0.50;;;-0.60;99.90;;;;;;5082912;28;20051;-66
2024/01/19 06:46:48;;;;;;;4.97;0.52;;;-0.50;99.90;;;;;;5118522;27;20075;-66
2024/01/19 06:49:14;;;;;;;9.32;2.15;;;-0.40;99.90;;;;;;5084808;28;20135;-66
2024/01/19 06:51:39;;;;;;;7.97;0.70;;;-0.40;99.90;;;;;;5116135;27;20481;-66
2024/01/19 06:54:05;;;;;;;6.90;0.38;;;-0.30;99.90;;;;;;5086192;28;20501;-66
2024/01/19 06:56:31;;;;;;;4.13;0.40;;;-0.20;99.90;;;;;;5085931;28;20433;-66
2024/01/19 06:58:56;;;;;;;4.25;0.77;;;-0.20;99.90;;;;;;5073947;28;20072;-66
2024/01/19 07:01:23;;;;;;;9.10;0.90;;;-0.20;99.90;;;;;;5085253;28;20048;-66
2024/01/19 07:03:48;;;;;;;8.20;0.50;;;-0.20;99.90;;;;;;5085461;28;20417;-66
2024/01/19 07:06:14;;;;;;;3.83;0.85;;;-0.20;99.90;;;;;;5083880;28;20135;-67
2024/01/19 07:08:40;;;;;;;4.68;0.50;;;-0.20;99.90;;;;;;5081209;28;20114;-66
2024/01/19 07:11:05;;;;;;;6.90;0.80;;;-0.30;99.90;;;;;;5083580;28;20444;-66
2024/01/19 07:13:31;;;;;;;6.53;0.40;;;-0.30;99.90;;;;;;5086072;28;20442;-66
2024/01/19 07:15:57;;;;;;;4.07;0.35;;;-0.30;99.90;;;;;;5084574;28;20032;-66
2024/01/19 07:18:22;;;;;;;7.25;0.73;;;-0.40;99.90;;;;;;5089105;28;20035;-66
2024/01/19 07:20:48;;;;;;;14.48;0.70;;;-0.40;99.90;;;;;;5085329;28;20055;-67
2024/01/19 07:23:13;;;;;;;7.75;0.50;;;-0.40;99.90;;;;;;5084162;28;20036;-66
2024/01/19 07:25:39;;;;;;;4.82;0.60;;;-0.40;99.90;;;;;;5083279;28;20056;-66
2024/01/19 07:28:05;;;;;;;4.47;0.60;;;-0.40;99.90;;;;;;5090623;28;20042;-66
2024/01/19 07:30:31;;;;;;;10.25;1.10;;;-0.40;99.90;;;;;;5083392;28;20460;-66
2024/01/19 07:32:57;;;;;;;5.95;0.50;;;-0.40;99.90;;;;;;5085585;28;20121;-66
2024/01/19 07:35:23;;;;;;;4.20;0.68;;;-0.40;99.90;;;;;;5084369;28;20673;-66
2024/01/19 07:37:48;;;;;;;6.53;1.00;;;-0.40;99.90;;;;;;5084365;28;20047;-66
2024/01/19 07:40:14;;;;;;;2.72;0.30;;;-0.40;99.90;;;;;;5084611;28;20040;-67
2024/01/19 07:42:40;;;;;;;3.22;0.43;;;-0.40;99.90;;;;;;5082011;28;20044;-65
2024/01/19 07:45:06;;;;;;;4.78;0.60;;;-0.40;99.90;;;;;;5084235;28;20432;-66
2024/01/19 07:47:34;;;;;;;6.55;0.90;;;-0.30;99.90;;;;;;5090819;28;20064;-67
2024/01/19 07:50:00;;;;;;;3.40;0.55;;;-0.30;99.90;;;;;;5112822;27;20045;-67
2024/01/19 07:52:26;;;;;;;5.15;0.40;;;-0.30;99.90;;;;;;5081523;28;20050;-66
2024/01/19 07:54:51;;;;;;;8.10;1.00;;;-0.20;99.90;;;;;;5084083;28;20463;-66
2024/01/19 07:57:17;;;;;;;8.50;0.93;;;-0.10;99.90;;;;;;5116467;27;20048;-67
2024/01/19 07:59:43;;;;;;;4.28;0.47;;;-0.10;99.90;;;;;;5081558;28;20045;-67
2024/01/19 08:02:09;;;;;;;9.13;0.77;;;-0.10;99.90;;;;;;5085011;28;20051;-66
2024/01/19 08:04:35;;;;;;;3.90;0.60;;;0.00;99.90;;;;;;5083312;28;20028;-66
2024/01/19 08:07:02;;;;;;;5.93;0.63;;;-0.10;99.90;;;;;;5084550;28;20048;-66
2024/01/19 08:09:27;;;;;;;8.48;1.00;;;0.00;99.90;;;;;;5083145;28;20409;-66
2024/01/19 08:11:53;;;;;;;7.30;0.45;;;0.00;99.90;;;;;;5079347;28;20067;-67
2024/01/19 08:14:18;;;;;;;5.28;0.50;;;0.10;99.90;;;;;;5084360;28;20044;-66
2024/01/19 08:16:44;;;;;;;4.70;0.60;;;0.10;99.90;;;;;;5084311;28;20032;-66
2024/01/19 08:19:10;;;;;;;6.82;0.50;;;0.20;99.90;;;;;;5061255;28;20203;-66
2024/01/19 08:21:42;;;;;;;6.07;0.75;;;0.20;99.90;;;;;;5078973;28;20036;-66
2024/01/19 08:24:08;;;;;;;5.43;0.80;;;0.20;99.90;;;;;;5075958;28;20028;-66
2024/01/19 08:26:34;;;;;;;6.38;0.50;;;0.20;99.90;;;;;;5076473;28;20097;-66
2024/01/19 08:29:00;;;;;;;8.00;0.80;;;0.10;99.90;;;;;;5080438;28;20494;-66
2024/01/19 08:31:27;;;;;;;5.22;1.42;;;0.20;99.90;;;;;;5106350;27;20040;-67
2024/01/19 08:33:53;;;;;;;4.43;0.70;;;0.10;99.90;;;;;;5079767;28;20036;-67
2024/01/19 08:36:23;;;;;;;2.58;0.50;;;0.20;99.90;;;;;;5063748;28;20042;-66
2024/01/19 08:38:50;;;;;;;2.83;0.47;;;0.20;99.90;;;;;;5062106;28;20162;-67
2024/01/19 08:41:15;;;;;;;5.25;0.60;;;0.20;99.90;;;;;;5105393;27;20039;-66
2024/01/19 08:43:42;;;;;;;2.38;0.55;;;0.20;99.90;;;;;;5075703;28;20032;-66
2024/01/19 08:46:07;;;;;;;5.55;0.52;;;0.20;99.90;;;;;;5073551;28;20394;-66
2024/01/19 08:48:33;;;;;;;2.05;0.60;;;0.10;99.90;;;;;;5077759;28;20032;-66
2024/01/19 08:51:00;;;;;;;4.82;0.70;;;0.20;99.90;;;;;;5079256;28;20104;-67
2024/01/19 08:53:27;;;;;;;5.75;1.15;;;0.20;99.90;;;;;;5108720;27;20044;-67
2024/01/19 08:55:53;;;;;;;5.07;1.25;;;0.20;99.90;;;;;;5077478;28;20535;-67
2024/01/19 08:58:18;;;;;;;5.35;0.85;;;0.20;99.90;;;;;;5076765;28;20307;-66
2024/01/19 09:00:44;;;;;;;4.15;0.50;;;0.20;99.90;;;;;;5078023;28;20036;-67
2024/01/19 09:03:10;;;;;;;3.63;0.52;;;0.20;99.90;;;;;;5107050;27;20044;-66
2024/01/19 09:05:36;;;;;;;8.80;0.60;;;0.30;99.90;;;;;;5077729;28;20573;-66
2024/01/19 09:08:02;;;;;;;3.70;0.40;;;0.30;99.90;;;;;;5074017;28;20131;-67
2024/01/19 09:10:29;;;;;;;2.17;0.52;;;0.40;99.90;;;;;;5079912;28;20127;-66
2024/01/19 09:12:55;;;;;;;5.70;1.25;;;0.30;99.90;;;;;;5076736;28;20044;-66
2024/01/19 09:15:21;;;;;;;8.18;0.57;;;0.40;99.90;;;;;;5075678;28;20044;-66
2024/01/19 09:17:47;;;;;;;5.15;0.60;;;0.40;99.90;;;;;;5078232;28;20503;-66
2024/01/19 09:20:13;;;;;;;4.57;0.60;;;0.40;99.90;;;;;;5079573;28;20127;-67
2024/01/19 09:22:39;;;;;;;6.50;0.70;;;0.50;99.90;;;;;;5077890;28;20040;-67
2024/01/19 09:25:05;;;;;;;6.47;0.77;;;0.50;99.90;;;;;;5077428;28;20081;-66
2024/01/19 09:27:31;;;;;;;5.90;0.50;;;0.50;99.90;;;;;;5077896;28;20047;-66
2024/01/19 09:29:57;;;;;;;4.78;0.88;;;0.60;99.90;;;;;;5076778;28;20032;-66
2024/01/19 09:32:22;;;;;;;8.60;0.80;;;0.60;99.90;;;;;;5103646;27;20052;-66
2024/01/19 09:34:48;;;;;;;4.50;0.60;;;0.60;99.90;;;;;;5075662;28;20045;-67
2024/01/19 09:37:14;;;;;;;5.97;0.70;;;0.60;99.90;;;;;;5079130;28;20115;-67
2024/01/19 09:39:39;;;;;;;5.78;0.70;;;0.60;99.90;;;;;;5080987;28;20036;-66
2024/01/19 09:42:22;;;;;;;9.85;0.80;;;0.70;99.90;;;;;;5063470;28;20452;-66
2024/01/19 09:45:04;;;;;;;8.73;1.17;;;0.80;99.90;;;;;;5079626;28;20043;-66
2024/01/19 09:48:00;;;;;;;5.35;0.60;;;0.80;99.90;;;;;;5079395;28;20040;-67
2024/01/19 09:50:32;;;;;;;7.20;1.48;;;0.80;99.90;;;;;;5077977;28;20254;-66
2024/01/19 09:52:59;;;;;;;8.07;0.90;;;0.90;99.90;;;;;;5080950;28;20049;-66
2024/01/19 09:55:26;;;;;;;5.18;1.00;;;0.90;99.90;;;;;;5109783;27;20505;-66
2024/01/19 09:57:52;;;;;;;8.20;1.27;;;1.00;99.90;;;;;;5080102;28;20773;-66
2024/01/19 10:00:19;;;;;;;8.75;1.17;;;1.00;99.90;;;;;;5080654;28;20051;-66
2024/01/19 10:02:50;;;;;;;7.85;1.20;;;1.00;99.90;;;;;;5079484;28;20397;-66
2024/01/19 10:05:17;;;;;;;5.65;1.45;;;1.10;99.90;;;;;;5078300;28;20546;-66
2024/01/19 10:07:44;;;;;;;6.60;1.40;;;1.10;99.90;;;;;;5084077;28;20043;-67
2024/01/19 10:10:10;;;;;;;6.30;0.95;;;1.20;99.90;;;;;;5079181;28;20508;-66
2024/01/19 10:12:39;;;;;;;3.00;0.90;;;1.20;99.90;;;;;;5110713;27;20082;-66
2024/01/19 10:15:15;;;;;;;9.30;1.30;;;1.30;99.90;;;;;;5085186;28;20036;-66
2024/01/19 10:17:42;;;;;;;6.70;0.85;;;1.40;99.90;;;;;;5082293;28;20390;-66
2024/01/19 10:20:12;;;;;;;6.88;0.98;;;1.40;99.90;;;;;;5080241;28;20044;-66
2024/01/19 10:22:38;;;;;;;6.25;1.35;;;1.60;99.90;;;;;;5096147;28;20052;-66
2024/01/19 10:25:05;;;;;;;9.07;2.38;;;1.60;99.90;;;;;;5078758;28;20045;-66
2024/01/19 10:27:41;;;;;;;6.97;1.38;;;1.70;99.90;;;;;;5084323;28;20441;-67
2024/01/19 10:30:09;;;;;;;9.10;1.58;;;1.80;99.90;;;;;;5074436;28;20083;-66
2024/01/19 10:32:45;;;;;;;12.00;1.60;;;1.90;99.90;;;;;;5062197;28;20060;-67
2024/01/19 10:35:12;;;;;;;;;;;2.00;99.90;;;;;;5076207;28;20048;-67
2024/01/19 10:37:38;;;;;;;9.02;1.55;;;2.10;99.90;;;;;;5075856;28;20253;-66
2024/01/19 10:40:21;;;;;;;6.50;1.63;;;2.30;99.90;;;;;;5073109;28;20047;-66
2024/01/19 10:42:53;;;;;;;12.15;2.10;;;2.40;99.90;;;;;;5108197;27;20045;-66
2024/01/19 10:45:30;;;;;;;6.20;1.17;;;2.40;99.90;;;;;;5075134;28;20545;-67
2024/01/19 10:47:59;;;;;;;11.63;3.30;;;2.40;99.90;;;;;;5076225;28;20036;-66
2024/01/19 10:50:26;;;;;;;9.20;2.72;;;2.50;99.90;;;;;;5107100;27;20044;-66
2024/01/19 10:52:53;;;;;;;7.20;1.75;;;2.50;99.90;;;;;;5075934;28;20054;-66
2024/01/19 10:55:22;;;;;;;10.15;2.30;;;2.60;99.90;;;;;;5075884;28;20082;-66
2024/01/19 10:57:57;;;;;;;9.15;2.25;;;2.80;99.90;;;;;;5073097;28;20055;-66
2024/01/19 11:00:24;;;;;;;9.68;1.85;;;2.80;99.90;;;;;;5059313;28;20123;-66
2024/01/19 11:02:56;;;;;;;9.80;1.40;;;2.90;99.90;;;;;;5076383;28;20402;-66
2024/01/19 11:05:23;;;;;;;6.05;2.28;;;3.00;99.90;;;;;;5076506;28;20047;-67
2024/01/19 11:08:00;;;;;;;10.43;1.83;;;3.00;99.90;;;;;;5073234;28;20041;-66
2024/01/19 11:10:31;;;;;;;6.95;1.20;;;3.20;99.90;;;;;;5076618;28;20166;-66
2024/01/19 11:12:59;;;;;;;7.75;1.30;;;3.30;99.90;;;;;;5078403;28;20043;-66
2024/01/19 11:15:34;;;;;;;8.68;1.40;;;3.30;99.90;;;;;;5109082;27;20050;-66
2024/01/19 11:18:01;;;;;;;7.70;1.30;;;3.40;99.90;;;;;;5073024;28;20106;-66
2024/01/19 11:20:29;;;;;;;5.50;1.00;;;3.50;99.90;;;;;;5078078;28;20083;-67
2024/01/19 11:22:54;;;;;;;6.18;1.00;;;3.70;99.90;;;;;;5074138;28;20047;-66
2024/01/19 11:25:38;;;;;;;7.00;1.00;;;3.70;99.90;;;;;;5076016;28;20478;-66
2024/01/19 11:28:29;;;;;;;5.90;1.13;;;3.90;99.90;;;;;;5072266;28;20173;-67
2024/01/19 11:31:07;;;;;;;8.57;2.42;;;4.00;99.90;;;;;;5070653;28;20139;-66
2024/01/19 11:33:32;;;;;;;9.20;1.77;;;4.10;99.90;;;;;;5073762;28;20413;-66
2024/01/19 11:35:58;;;;;;;6.72;1.55;;;4.30;99.90;;;;;;5072976;28;20047;-66
2024/01/19 11:38:36;;;;;;;5.22;0.85;;;4.40;99.90;;;;;;5075343;28;20093;-66
2024/01/19 11:41:03;;;;;;;13.60;1.45;;;4.60;99.90;;;;;;5071644;28;20051;-66
2024/01/19 11:43:44;;;;;;;4.70;1.35;;;4.70;99.90;;;;;;5075961;28;20047;-66
2024/01/19 11:46:10;;;;;;;8.93;1.35;;;4.80;99.90;;;;;;5076915;28;20413;-66
2024/01/19 11:48:39;;;;;;;6.65;0.82;;;4.80;99.90;;;;;;5077453;28;20024;-66
2024/01/19 11:51:05;;;;;;;5.28;1.00;;;4.80;99.90;;;;;;5109098;27;20035;-66
2024/01/19 11:54:01;;;;;;;10.32;1.85;;;5.00;99.90;;;;;;5073466;28;20443;-66
2024/01/19 11:56:28;;;;;;;12.27;1.20;;;5.10;99.90;;;;;;5062037;28;20136;-66
2024/01/19 11:58:54;;;;;;;10.45;1.60;;;5.10;99.90;;;;;;5076376;28;20043;-66
2024/01/19 12:01:21;;;;;;;6.97;0.93;;;5.10;99.90;;;;;;5075898;28;20520;-66
2024/01/19 12:03:55;;;;;;;5.30;1.08;;;5.20;99.90;;;;;;5072447;28;20401;-66
2024/01/19 12:06:22;;;;;;;3.63;0.90;;;5.20;99.90;;;;;;5059668;28;20033;-66
2024/01/19 12:09:09;;;;;;;5.10;0.80;;;5.30;99.90;;;;;;5057043;28;20039;-66
2024/01/19 12:11:35;;;;;;;6.82;1.38;;;5.40;99.90;;;;;;5076168;28;20155;-66
2024/01/19 12:14:03;;;;;;;8.70;0.90;;;5.40;99.90;;;;;;5079018;28;20123;-67
2024/01/19 12:16:32;;;;;;;12.45;1.33;;;5.40;99.90;;;;;;5076653;28;20579;-66
2024/01/19 12:18:58;;;;;;;6.43;1.20;;;5.40;99.90;;;;;;5072454;28;20456;-66
2024/01/19 12:21:24;;;;;;;9.70;2.08;;;5.30;99.90;;;;;;5075148;28;20044;-66
2024/01/19 12:23:57;;;;;;;7.30;1.52;;;5.30;99.90;;;;;;5075558;28;20040;-67
2024/01/19 12:26:24;;;;;;;7.20;1.20;;;5.30;99.90;;;;;;5073777;28;20490;-66
2024/01/19 12:28:51;;;;;;;11.70;2.20;;;5.30;99.90;;;;;;5078258;28;20116;-66
2024/01/19 12:31:25;;;;;;;4.90;0.93;;;5.20;99.90;;;;;;5075245;28;20124;-66
2024/01/19 12:33:50;;;;;;;4.07;1.08;;;5.50;99.90;;;;;;5078724;28;20538;-66
2024/01/19 12:36:18;;;;;;;4.85;0.80;;;5.20;99.90;;;;;;5074816;28;20050;-67
2024/01/19 12:38:44;;;;;;;6.90;1.40;;;5.20;99.90;;;;;;5078274;28;20061;-66
2024/01/19 12:41:19;;;;;;;8.60;1.95;;;5.20;99.90;;;;;;5076244;28;20044;-67
2024/01/19 12:43:44;;;;;;;6.68;2.22;;;5.20;99.90;;;;;;5062555;28;20036;-66
2024/01/19 12:46:12;;;;;;;8.45;1.58;;;5.20;99.90;;;;;;5078654;28;20585;-67
2024/01/19 12:48:38;;;;;;;6.65;1.23;;;5.20;99.90;;;;;;5073679;28;20043;-66
2024/01/19 12:51:06;;;;;;;11.85;1.73;;;5.10;99.90;;;;;;5078675;28;20040;-67